createdAt,value
2023-01-22T00:00:43.127Z,-0.12
2023-01-22T00:05:21.140Z,-0.09
2023-01-22T00:09:38.809Z,-0.15
2023-01-22T00:13:56.526Z,-0.20
2023-01-22T00:18:14.828Z,-0.18
2023-01-22T00:22:32.590Z,-0.09
2023-01-22T00:26:50.219Z,-0.02
2023-01-22T00:31:08.679Z,-0.06
2023-01-22T00:35:26.461Z,-0.01
2023-01-22T00:39:43.951Z,0.05
2023-01-22T00:44:01.748Z,0.08
2023-01-22T00:48:19.358Z,0.09
2023-01-22T00:52:40.503Z,0.12
2023-01-22T00:56:57.914Z,0.16
2023-01-22T01:01:16.529Z,0.16
2023-01-22T01:05:33.983Z,0.12
2023-01-22T01:09:51.114Z,0.09
2023-01-22T01:14:09.680Z,0.14
2023-01-22T01:18:27.480Z,0.11
2023-01-22T01:22:44.981Z,0.08
2023-01-22T01:27:02.752Z,0.07
2023-01-22T01:31:23.278Z,0.07
2023-01-22T01:35:41.139Z,0.07
2023-01-22T01:39:58.688Z,0.07
2023-01-22T01:44:23.153Z,0.05
2023-01-22T01:48:48.746Z,0.03
2023-01-22T01:53:07.033Z,0.09
2023-01-22T01:57:27.859Z,0.14
2023-01-22T02:01:51.472Z,0.14
2023-01-22T02:06:16.910Z,0.16
2023-01-22T02:10:34.468Z,0.19
2023-01-22T02:14:52.199Z,0.09
2023-01-22T02:19:09.949Z,0.09
2023-01-22T02:23:30.305Z,0.11
2023-01-22T02:27:47.955Z,0.08
2023-01-22T02:32:05.568Z,-0.02
2023-01-22T02:36:23.232Z,0.01
2023-01-22T02:40:49.363Z,0.02
2023-01-22T02:45:08.265Z,0.09
2023-01-22T02:49:25.484Z,0.15
2023-01-22T02:53:43.137Z,0.12
2023-01-22T02:58:00.643Z,0.05
2023-01-22T03:02:18.430Z,0.05
2023-01-22T03:06:36.385Z,-0.06
2023-01-22T03:10:59.272Z,-0.08
2023-01-22T03:15:35.484Z,-0.09
2023-01-22T03:20:12.046Z,-0.10
2023-01-22T03:24:29.710Z,-0.16
2023-01-22T03:28:47.986Z,-0.10
2023-01-22T03:33:05.304Z,-0.03
2023-01-22T03:37:22.989Z,-0.06
2023-01-22T03:41:40.910Z,-0.01
2023-01-22T03:46:11.107Z,-0.03
2023-01-22T03:50:29.145Z,0.08
2023-01-22T03:54:46.647Z,-0.01
2023-01-22T03:59:04.220Z,0.01
2023-01-22T04:03:21.715Z,0.01
2023-01-22T04:07:39.277Z,-0.03
2023-01-22T04:11:56.742Z,-0.01
2023-01-22T04:16:15.466Z,-0.02
2023-01-22T04:20:32.912Z,-0.03
2023-01-22T04:24:50.475Z,-0.03
2023-01-22T04:29:09.289Z,-0.10
2023-01-22T04:33:26.919Z,-0.16
2023-01-22T04:37:44.644Z,-0.15
2023-01-22T04:42:02.164Z,-0.06
2023-01-22T04:46:20.491Z,-0.02
2023-01-22T04:50:38.468Z,-0.01
2023-01-22T04:54:56.187Z,-0.06
2023-01-22T04:59:13.678Z,-0.09
2023-01-22T05:03:31.334Z,-0.16
2023-01-22T05:07:48.829Z,-0.13
2023-01-22T05:12:06.864Z,-0.15
2023-01-22T05:16:24.351Z,-0.09
2023-01-22T05:20:42.290Z,-0.03
2023-01-22T05:24:59.805Z,0.02
2023-01-22T05:29:17.479Z,-0.03
2023-01-22T05:33:34.997Z,-0.02
2023-01-22T05:37:52.693Z,0.07
2023-01-22T05:42:17.143Z,-0.09
2023-01-22T05:46:34.745Z,-0.08
2023-01-22T05:50:52.091Z,-0.03
2023-01-22T05:55:09.839Z,-0.06
2023-01-22T05:59:27.465Z,-0.10
2023-01-22T06:03:44.692Z,-0.10
2023-01-22T06:08:02.565Z,-0.09
2023-01-22T06:12:20.082Z,-0.10
2023-01-22T06:16:37.681Z,-0.12
2023-01-22T06:21:06.627Z,-0.05
2023-01-22T06:25:24.225Z,-0.03
2023-01-22T06:29:41.846Z,-0.05
2023-01-22T06:33:59.362Z,-0.10
2023-01-22T06:38:17.126Z,-0.10
2023-01-22T06:42:37.453Z,-0.09
2023-01-22T06:46:55.004Z,-0.06
2023-01-22T06:51:13.441Z,0.14
2023-01-22T06:55:30.747Z,0.18
2023-01-22T06:59:48.376Z,0.22
2023-01-22T07:04:05.934Z,0.39
2023-01-22T07:08:24.065Z,0.46
2023-01-22T07:12:41.596Z,0.45
2023-01-22T07:16:59.193Z,0.60
2023-01-22T07:21:16.840Z,0.54
2023-01-22T07:25:34.349Z,0.67
2023-01-22T07:29:52.054Z,0.67
2023-01-22T07:34:09.635Z,0.74
2023-01-22T07:38:28.538Z,0.85
2023-01-22T07:42:46.041Z,0.77
2023-01-22T07:47:03.712Z,0.78
2023-01-22T07:51:21.456Z,0.75
2023-01-22T07:55:40.645Z,0.83
2023-01-22T07:59:58.141Z,0.91
2023-01-22T08:04:15.822Z,1.01
2023-01-22T08:08:33.291Z,1.21
2023-01-22T08:12:50.838Z,1.28
2023-01-22T08:17:08.487Z,1.39
2023-01-22T08:21:25.956Z,1.49
2023-01-22T08:25:43.422Z,1.53
2023-01-22T08:30:00.519Z,1.38
2023-01-22T08:34:18.146Z,1.44
2023-01-22T08:38:35.764Z,1.51
2023-01-22T08:42:54.918Z,1.50
2023-01-22T08:47:12.539Z,1.38
2023-01-22T08:51:33.014Z,1.28
2023-01-22T08:55:51.127Z,1.28
2023-01-22T09:00:11.472Z,1.44
2023-01-22T09:04:29.223Z,1.36
2023-01-22T09:08:46.754Z,1.57
2023-01-22T09:13:04.669Z,1.94
2023-01-22T09:17:22.447Z,2.18
2023-01-22T09:21:40.514Z,2.19
2023-01-22T09:25:58.225Z,2.26
2023-01-22T09:30:16.817Z,2.32
2023-01-22T09:34:34.574Z,2.52
2023-01-22T09:38:52.295Z,2.58
2023-01-22T09:43:35.996Z,2.80
2023-01-22T09:47:59.956Z,2.81
2023-01-22T09:52:17.641Z,2.77
2023-01-22T09:56:42.153Z,2.92
2023-01-22T10:01:04.508Z,3.05
2023-01-22T10:05:36.097Z,2.58
2023-01-22T10:10:02.598Z,2.36
2023-01-22T10:14:23.316Z,2.33
2023-01-22T10:19:04.023Z,2.63
2023-01-22T10:23:25.973Z,2.50
2023-01-22T10:27:45.958Z,2.91
2023-01-22T10:32:24.481Z,2.99
2023-01-22T10:36:50.648Z,3.25
2023-01-22T10:41:18.428Z,3.39
2023-01-22T10:45:36.075Z,3.38
2023-01-22T10:50:07.167Z,3.23
2023-01-22T10:54:31.989Z,3.26
2023-01-22T10:58:49.545Z,3.38
2023-01-22T11:03:33.165Z,3.19
2023-01-22T11:08:11.468Z,3.39
2023-01-22T11:12:38.236Z,3.15
2023-01-22T11:17:04.291Z,2.68
2023-01-22T11:21:46.933Z,2.58
2023-01-22T11:26:26.245Z,2.47
2023-01-22T11:31:04.032Z,2.36
2023-01-22T11:36:09.924Z,2.18
2023-01-22T11:40:34.650Z,2.25
2023-01-22T11:45:00.601Z,2.26
2023-01-22T11:49:50.605Z,2.35
2023-01-22T11:54:46.271Z,2.46
2023-01-22T11:59:36.650Z,2.53
2023-01-22T12:04:13.370Z,2.39
2023-01-22T12:08:55.610Z,2.53
2023-01-22T12:14:03.588Z,2.37
2023-01-22T12:18:37.397Z,2.29
2023-01-22T12:23:10.424Z,2.33
2023-01-22T12:27:55.307Z,2.35
2023-01-22T12:32:15.656Z,2.33
2023-01-22T12:36:34.032Z,2.18
2023-01-22T12:41:21.439Z,2.15
2023-01-22T12:46:01.745Z,2.09
2023-01-22T12:50:22.809Z,2.16
2023-01-22T12:54:40.633Z,2.13
2023-01-22T12:58:59.365Z,2.23
2023-01-22T13:03:32.285Z,2.03
2023-01-22T13:08:05.018Z,1.92
2023-01-22T13:12:29.020Z,2.01
2023-01-22T13:16:59.660Z,1.91
2023-01-22T13:21:24.390Z,2.09
2023-01-22T13:25:43.071Z,2.16
2023-01-22T13:30:09.780Z,2.13
2023-01-22T13:34:28.579Z,1.95
2023-01-22T13:38:57.150Z,1.94
2023-01-22T13:43:19.882Z,1.87
2023-01-22T13:47:37.379Z,1.99
2023-01-22T13:51:58.201Z,1.88
2023-01-22T13:56:19.362Z,1.88
2023-01-22T14:00:37.243Z,1.91
2023-01-22T14:04:54.833Z,1.87
2023-01-22T14:09:12.478Z,1.82
2023-01-22T14:13:41.272Z,1.74
2023-01-22T14:18:10.131Z,1.75
2023-01-22T14:22:28.049Z,1.82
2023-01-22T14:26:45.681Z,1.71
2023-01-22T14:31:03.991Z,1.66
2023-01-22T14:35:25.018Z,1.67
2023-01-22T14:39:42.695Z,1.74
2023-01-22T14:44:03.756Z,1.77
2023-01-22T14:48:22.444Z,1.81
2023-01-22T14:52:39.983Z,1.82
2023-01-22T14:56:59.766Z,1.94
2023-01-22T15:01:20.906Z,1.92
2023-01-22T15:05:38.543Z,1.81
2023-01-22T15:09:56.273Z,1.84
2023-01-22T15:14:13.903Z,1.75
2023-01-22T15:18:31.777Z,1.71
2023-01-22T15:22:50.207Z,1.71
2023-01-22T15:27:08.154Z,1.78
2023-01-22T15:31:25.981Z,1.78
2023-01-22T15:35:44.045Z,1.74
2023-01-22T15:40:02.347Z,1.68
2023-01-22T15:44:19.847Z,1.68
2023-01-22T15:48:38.122Z,1.71
2023-01-22T15:52:58.207Z,1.70
2023-01-22T15:57:15.779Z,1.68
2023-01-22T16:01:33.818Z,1.66
2023-01-22T16:05:54.266Z,1.66
2023-01-22T16:10:11.912Z,1.68
2023-01-22T16:14:29.531Z,1.73
2023-01-22T16:18:48.764Z,1.70
2023-01-22T16:23:07.103Z,1.64
2023-01-22T16:27:24.813Z,1.57
2023-01-22T16:31:42.664Z,1.59
2023-01-22T16:36:06.364Z,1.56
2023-01-22T16:40:24.055Z,1.63
2023-01-22T16:44:41.768Z,1.67
2023-01-22T16:49:08.788Z,1.70
2023-01-22T16:53:27.412Z,1.71
2023-01-22T16:57:44.936Z,1.66
2023-01-22T17:02:05.742Z,1.67
2023-01-22T17:06:47.401Z,1.67
2023-01-22T17:11:06.447Z,1.70
2023-01-22T17:15:24.084Z,1.74
2023-01-22T17:19:42.024Z,1.68
2023-01-22T17:23:59.747Z,1.70
2023-01-22T17:28:18.866Z,1.67
2023-01-22T17:32:36.635Z,1.74
2023-01-22T17:36:54.378Z,1.73
2023-01-22T17:41:21.734Z,1.70
2023-01-22T17:45:40.453Z,1.67
2023-01-22T17:49:57.984Z,1.66
2023-01-22T17:54:15.935Z,1.71
2023-01-22T17:58:33.753Z,1.64
2023-01-22T18:02:51.837Z,1.74
2023-01-22T18:07:09.504Z,1.68
2023-01-22T18:11:29.998Z,1.71
2023-01-22T18:15:48.684Z,1.78
2023-01-22T18:20:09.563Z,1.71
2023-01-22T18:24:27.450Z,1.70
2023-01-22T18:28:45.204Z,1.68
2023-01-22T18:33:02.863Z,1.67
2023-01-22T18:37:20.703Z,1.59
2023-01-22T18:41:40.114Z,1.71
2023-01-22T18:46:05.587Z,1.68
2023-01-22T18:50:23.384Z,1.68
2023-01-22T18:54:40.921Z,1.71
2023-01-22T18:58:58.982Z,1.75
2023-01-22T19:03:16.575Z,1.71
2023-01-22T19:07:38.480Z,1.71
2023-01-22T19:11:56.347Z,1.74
2023-01-22T19:16:17.088Z,1.75
2023-01-22T19:20:36.873Z,1.75
2023-01-22T19:24:57.415Z,1.71
2023-01-22T19:29:17.739Z,1.75
2023-01-22T19:33:35.357Z,1.91
2023-01-22T19:37:53.166Z,1.92
2023-01-22T19:42:10.899Z,1.94
2023-01-22T19:46:29.172Z,1.92
2023-01-22T19:50:46.865Z,1.91
2023-01-22T19:55:04.970Z,1.92
2023-01-22T19:59:23.937Z,1.91
2023-01-22T20:03:42.458Z,1.90
2023-01-22T20:08:00.145Z,1.94
2023-01-22T20:12:17.576Z,1.91
2023-01-22T20:16:35.319Z,1.91
2023-01-22T20:20:57.339Z,1.95
2023-01-22T20:25:15.704Z,1.88
2023-01-22T20:29:33.552Z,1.91
2023-01-22T20:33:55.055Z,1.88
2023-01-22T20:38:12.829Z,1.92
2023-01-22T20:42:32.091Z,1.91
2023-01-22T20:46:49.648Z,1.94
2023-01-22T20:51:15.502Z,1.94
2023-01-22T20:55:33.529Z,1.92
2023-01-22T20:59:51.176Z,1.95
2023-01-22T21:04:11.633Z,1.95
2023-01-22T21:08:29.443Z,1.97
2023-01-22T21:12:47.211Z,2.01
2023-01-22T21:17:04.728Z,1.97
2023-01-22T21:21:22.816Z,1.91
2023-01-22T21:25:40.463Z,1.84
2023-01-22T21:29:58.761Z,1.82
2023-01-22T21:34:18.214Z,1.82
2023-01-22T21:38:36.684Z,1.82
2023-01-22T21:43:12.805Z,1.82
2023-01-22T21:47:30.762Z,1.90
2023-01-22T21:52:05.635Z,1.81
2023-01-22T21:56:24.370Z,1.88
2023-01-22T22:00:41.885Z,1.78
2023-01-22T22:05:00.134Z,1.78
2023-01-22T22:09:24.987Z,1.80
2023-01-22T22:13:42.933Z,1.78
2023-01-22T22:18:00.459Z,1.80
2023-01-22T22:22:18.095Z,1.80
2023-01-22T22:26:35.726Z,1.74
2023-01-22T22:30:53.559Z,1.71
2023-01-22T22:35:11.168Z,1.73
2023-01-22T22:39:28.795Z,1.77
2023-01-22T22:43:48.470Z,1.85
2023-01-22T22:48:06.964Z,1.91
2023-01-22T22:52:24.340Z,1.98
2023-01-22T22:56:42.104Z,2.05
2023-01-22T23:00:59.258Z,1.95
2023-01-22T23:05:17.172Z,1.99
2023-01-22T23:09:34.652Z,2.06
2023-01-22T23:13:52.708Z,1.97
2023-01-22T23:18:10.306Z,1.92
2023-01-22T23:22:28.033Z,1.94
2023-01-22T23:26:46.138Z,1.90
2023-01-22T23:31:14.333Z,1.95
2023-01-22T23:35:32.156Z,1.99
2023-01-22T23:39:51.269Z,1.98
2023-01-22T23:44:09.408Z,1.92
2023-01-22T23:48:27.882Z,1.95
2023-01-22T23:52:46.819Z,2.02
2023-01-22T23:57:04.405Z,1.94
